sensor_id;sensor_type;location;lat;lon;timestamp;temperature;humidity
42141;DHT22;27809;51.864;5.646;2023-11-22T14:08:18;19.10;1.00
42141;DHT22;27809;51.864;5.646;2023-11-22T14:10:44;18.40;1.00
42141;DHT22;27809;51.864;5.646;2023-11-22T14:13:10;16.90;1.00
42141;DHT22;27809;51.864;5.646;2023-11-22T14:15:37;15.30;1.00
42141;DHT22;27809;51.864;5.646;2023-11-22T14:18:03;13.90;1.00
42141;DHT22;27809;51.864;5.646;2023-11-22T14:20:29;12.80;1.00
42141;DHT22;27809;51.864;5.646;2023-11-22T14:22:55;11.90;1.00
42141;DHT22;27809;51.864;5.646;2023-11-22T14:25:20;11.20;1.00
42141;DHT22;27809;51.864;5.646;2023-11-22T14:27:46;10.60;1.00
42141;DHT22;27809;51.864;5.646;2023-11-22T14:30:13;10.10;1.00
42141;DHT22;27809;51.864;5.646;2023-11-22T14:32:42;9.80;1.00
42141;DHT22;27809;51.864;5.646;2023-11-22T14:35:09;9.50;1.00
42141;DHT22;27809;51.864;5.646;2023-11-22T14:37:35;9.30;1.00
42141;DHT22;27809;51.864;5.646;2023-11-22T14:40:01;9.10;1.00
42141;DHT22;27809;51.864;5.646;2023-11-22T14:42:29;8.90;1.00
42141;DHT22;27809;51.864;5.646;2023-11-22T14:44:55;8.80;1.00
42141;DHT22;27809;51.864;5.646;2023-11-22T14:47:20;8.70;1.00
42141;DHT22;27809;51.864;5.646;2023-11-22T14:49:51;8.50;1.00
42141;DHT22;27809;51.864;5.646;2023-11-22T14:52:16;8.50;1.00
42141;DHT22;27809;51.864;5.646;2023-11-22T14:54:45;8.40;1.00
42141;DHT22;27809;51.864;5.646;2023-11-22T14:57:11;8.30;1.00
42141;DHT22;27809;51.864;5.646;2023-11-22T14:59:38;8.20;1.00
42141;DHT22;27809;51.864;5.646;2023-11-22T15:02:04;8.20;1.00
42141;DHT22;27809;51.864;5.646;2023-11-22T15:04:36;8.10;1.00
42141;DHT22;27809;51.864;5.646;2023-11-22T15:07:03;8.00;1.00
42141;DHT22;27809;51.864;5.646;2023-11-22T15:09:30;8.00;1.00
42141;DHT22;27809;51.864;5.646;2023-11-22T15:11:58;7.90;1.00
42141;DHT22;27809;51.864;5.646;2023-11-22T15:14:24;7.90;1.00
42141;DHT22;27809;51.864;5.646;2023-11-22T15:16:51;7.80;1.00
42141;DHT22;27809;51.864;5.646;2023-11-22T15:19:17;7.80;1.00
42141;DHT22;27809;51.864;5.646;2023-11-22T15:21:43;7.80;1.00
42141;DHT22;27809;51.864;5.646;2023-11-22T15:24:09;7.70;1.00
42141;DHT22;27809;51.864;5.646;2023-11-22T15:26:34;7.70;1.00
42141;DHT22;27809;51.864;5.646;2023-11-22T15:29:00;7.70;1.00
42141;DHT22;27809;51.864;5.646;2023-11-22T15:31:25;7.60;1.00
42141;DHT22;27809;51.864;5.646;2023-11-22T15:33:51;7.60;1.00
42141;DHT22;27809;51.864;5.646;2023-11-22T15:36:17;7.60;1.00
42141;DHT22;27809;51.864;5.646;2023-11-22T15:38:42;7.60;1.00
42141;DHT22;27809;51.864;5.646;2023-11-22T15:41:08;7.50;1.00
42141;DHT22;27809;51.864;5.646;2023-11-22T15:43:34;7.50;1.00
42141;DHT22;27809;51.864;5.646;2023-11-22T15:45:59;7.50;1.00
42141;DHT22;27809;51.864;5.646;2023-11-22T15:48:25;7.50;1.00
42141;DHT22;27809;51.864;5.646;2023-11-22T15:50:54;7.50;1.00
42141;DHT22;27809;51.864;5.646;2023-11-22T15:53:19;7.50;1.00
42141;DHT22;27809;51.864;5.646;2023-11-22T15:55:45;7.50;1.00
42141;DHT22;27809;51.864;5.646;2023-11-22T15:58:10;7.50;1.20
42141;DHT22;27809;51.864;5.646;2023-11-22T16:00:37;7.40;1.70
42141;DHT22;27809;51.864;5.646;2023-11-22T16:03:03;7.40;2.40
42141;DHT22;27809;51.864;5.646;2023-11-22T16:05:32;7.40;3.10
42141;DHT22;27809;51.864;5.646;2023-11-22T16:07:58;7.40;3.60
42141;DHT22;27809;51.864;5.646;2023-11-22T16:10:24;7.30;4.10
42141;DHT22;27809;51.864;5.646;2023-11-22T16:12:49;7.40;5.60
42141;DHT22;27809;51.864;5.646;2023-11-22T16:15:17;7.40;5.90
42141;DHT22;27809;51.864;5.646;2023-11-22T16:17:42;7.40;6.20
42141;DHT22;27809;51.864;5.646;2023-11-22T16:20:09;7.30;6.70
42141;DHT22;27809;51.864;5.646;2023-11-22T16:22:40;7.30;7.10
42141;DHT22;27809;51.864;5.646;2023-11-22T16:25:13;7.30;7.60
42141;DHT22;27809;51.864;5.646;2023-11-22T16:27:40;7.30;8.10
42141;DHT22;27809;51.864;5.646;2023-11-22T16:30:07;7.30;8.40
42141;DHT22;27809;51.864;5.646;2023-11-22T16:32:37;7.30;8.90
42141;DHT22;27809;51.864;5.646;2023-11-22T16:35:03;7.30;9.40
42141;DHT22;27809;51.864;5.646;2023-11-22T16:37:29;7.20;9.90
42141;DHT22;27809;51.864;5.646;2023-11-22T16:39:55;7.20;10.60
42141;DHT22;27809;51.864;5.646;2023-11-22T16:42:21;7.20;11.20
42141;DHT22;27809;51.864;5.646;2023-11-22T16:44:48;7.20;11.90
42141;DHT22;27809;51.864;5.646;2023-11-22T16:47:13;7.20;12.30
42141;DHT22;27809;51.864;5.646;2023-11-22T16:49:43;7.20;12.70
42141;DHT22;27809;51.864;5.646;2023-11-22T16:52:10;7.20;13.30
42141;DHT22;27809;51.864;5.646;2023-11-22T16:54:39;7.20;13.80
42141;DHT22;27809;51.864;5.646;2023-11-22T16:57:05;7.20;14.20
42141;DHT22;27809;51.864;5.646;2023-11-22T16:59:31;7.20;14.50
42141;DHT22;27809;51.864;5.646;2023-11-22T17:01:56;7.20;15.00
42141;DHT22;27809;51.864;5.646;2023-11-22T17:04:24;7.20;15.40
42141;DHT22;27809;51.864;5.646;2023-11-22T17:06:50;7.20;15.80
42141;DHT22;27809;51.864;5.646;2023-11-22T17:09:15;7.20;16.70
42141;DHT22;27809;51.864;5.646;2023-11-22T17:11:43;7.20;16.70
42141;DHT22;27809;51.864;5.646;2023-11-22T17:14:08;7.20;17.10
42141;DHT22;27809;51.864;5.646;2023-11-22T17:16:34;7.20;17.50
42141;DHT22;27809;51.864;5.646;2023-11-22T17:19:00;7.20;17.80
42141;DHT22;27809;51.864;5.646;2023-11-22T17:21:25;7.20;18.10
42141;DHT22;27809;51.864;5.646;2023-11-22T17:23:51;7.30;18.60
42141;DHT22;27809;51.864;5.646;2023-11-22T17:26:16;7.30;18.90
42141;DHT22;27809;51.864;5.646;2023-11-22T17:28:42;7.30;19.20
42141;DHT22;27809;51.864;5.646;2023-11-22T17:31:07;7.30;19.40
42141;DHT22;27809;51.864;5.646;2023-11-22T17:33:33;7.20;19.50
42141;DHT22;27809;51.864;5.646;2023-11-22T17:35:59;7.20;19.80
42141;DHT22;27809;51.864;5.646;2023-11-22T17:38:24;7.20;19.80
42141;DHT22;27809;51.864;5.646;2023-11-22T17:40:51;7.20;19.90
42141;DHT22;27809;51.864;5.646;2023-11-22T17:43:16;7.20;20.20
42141;DHT22;27809;51.864;5.646;2023-11-22T17:45:43;7.20;20.40
42141;DHT22;27809;51.864;5.646;2023-11-22T17:48:08;7.20;20.60
42141;DHT22;27809;51.864;5.646;2023-11-22T17:50:35;7.20;20.70
42141;DHT22;27809;51.864;5.646;2023-11-22T17:53:00;7.20;20.60
42141;DHT22;27809;51.864;5.646;2023-11-22T17:55:27;7.20;20.90
42141;DHT22;27809;51.864;5.646;2023-11-22T17:57:52;7.20;21.20
42141;DHT22;27809;51.864;5.646;2023-11-22T18:00:18;7.20;21.20
42141;DHT22;27809;51.864;5.646;2023-11-22T18:02:44;7.20;21.70
42141;DHT22;27809;51.864;5.646;2023-11-22T18:05:09;7.10;21.30
42141;DHT22;27809;51.864;5.646;2023-11-22T18:07:35;7.10;21.50
42141;DHT22;27809;51.864;5.646;2023-11-22T18:10:03;7.10;21.90
42141;DHT22;27809;51.864;5.646;2023-11-22T18:12:30;7.10;22.50
42141;DHT22;27809;51.864;5.646;2023-11-22T18:14:56;7.10;22.90
42141;DHT22;27809;51.864;5.646;2023-11-22T18:17:22;7.10;23.30
42141;DHT22;27809;51.864;5.646;2023-11-22T18:19:48;7.10;23.70
42141;DHT22;27809;51.864;5.646;2023-11-22T18:22:14;7.20;24.10
42141;DHT22;27809;51.864;5.646;2023-11-22T18:24:39;7.20;24.50
42141;DHT22;27809;51.864;5.646;2023-11-22T18:27:05;7.20;24.60
42141;DHT22;27809;51.864;5.646;2023-11-22T18:29:31;7.20;24.80
42141;DHT22;27809;51.864;5.646;2023-11-22T18:31:56;7.20;24.50
42141;DHT22;27809;51.864;5.646;2023-11-22T18:34:23;7.10;24.30
42141;DHT22;27809;51.864;5.646;2023-11-22T18:36:55;7.10;24.10
42141;DHT22;27809;51.864;5.646;2023-11-22T18:39:21;7.10;23.70
42141;DHT22;27809;51.864;5.646;2023-11-22T18:41:47;7.00;23.40
42141;DHT22;27809;51.864;5.646;2023-11-22T18:44:12;7.00;23.30
42141;DHT22;27809;51.864;5.646;2023-11-22T18:46:38;6.90;23.40
42141;DHT22;27809;51.864;5.646;2023-11-22T18:49:04;6.90;23.50
42141;DHT22;27809;51.864;5.646;2023-11-22T18:51:29;6.90;23.80
42141;DHT22;27809;51.864;5.646;2023-11-22T18:53:55;6.80;23.90
42141;DHT22;27809;51.864;5.646;2023-11-22T18:56:20;6.80;24.40
42141;DHT22;27809;51.864;5.646;2023-11-22T18:58:46;6.80;24.60
42141;DHT22;27809;51.864;5.646;2023-11-22T19:01:13;6.80;24.90
42141;DHT22;27809;51.864;5.646;2023-11-22T19:03:38;6.80;24.80
42141;DHT22;27809;51.864;5.646;2023-11-22T19:06:04;6.70;24.80
42141;DHT22;27809;51.864;5.646;2023-11-22T19:08:31;6.70;25.10
42141;DHT22;27809;51.864;5.646;2023-11-22T19:10:56;6.70;25.10
42141;DHT22;27809;51.864;5.646;2023-11-22T19:13:22;6.60;25.30
42141;DHT22;27809;51.864;5.646;2023-11-22T19:15:48;6.60;25.40
42141;DHT22;27809;51.864;5.646;2023-11-22T19:18:15;6.60;25.50
42141;DHT22;27809;51.864;5.646;2023-11-22T19:20:40;6.50;25.70
42141;DHT22;27809;51.864;5.646;2023-11-22T19:23:07;6.50;26.00
42141;DHT22;27809;51.864;5.646;2023-11-22T19:25:33;6.50;26.20
42141;DHT22;27809;51.864;5.646;2023-11-22T19:28:01;6.50;26.00
42141;DHT22;27809;51.864;5.646;2023-11-22T19:30:31;6.50;26.40
42141;DHT22;27809;51.864;5.646;2023-11-22T19:32:59;6.50;26.90
42141;DHT22;27809;51.864;5.646;2023-11-22T19:35:27;6.50;27.00
42141;DHT22;27809;51.864;5.646;2023-11-22T19:37:53;6.50;27.40
42141;DHT22;27809;51.864;5.646;2023-11-22T19:40:18;6.50;27.80
42141;DHT22;27809;51.864;5.646;2023-11-22T19:42:44;6.50;28.40
42141;DHT22;27809;51.864;5.646;2023-11-22T19:45:09;6.50;29.20
42141;DHT22;27809;51.864;5.646;2023-11-22T19:47:37;6.60;30.00
42141;DHT22;27809;51.864;5.646;2023-11-22T19:50:05;6.60;30.90
42141;DHT22;27809;51.864;5.646;2023-11-22T19:52:31;6.70;31.90
42141;DHT22;27809;51.864;5.646;2023-11-22T19:54:57;6.70;33.00
42141;DHT22;27809;51.864;5.646;2023-11-22T19:57:23;6.80;34.00
42141;DHT22;27809;51.864;5.646;2023-11-22T19:59:48;6.90;34.90
42141;DHT22;27809;51.864;5.646;2023-11-22T20:02:14;6.90;35.40
42141;DHT22;27809;51.864;5.646;2023-11-22T20:04:40;7.00;35.70
42141;DHT22;27809;51.864;5.646;2023-11-22T20:07:06;7.00;36.40
42141;DHT22;27809;51.864;5.646;2023-11-22T20:09:31;7.10;37.10
42141;DHT22;27809;51.864;5.646;2023-11-22T20:11:57;7.10;37.50
42141;DHT22;27809;51.864;5.646;2023-11-22T20:14:23;7.20;38.00
42141;DHT22;27809;51.864;5.646;2023-11-22T20:16:48;7.20;38.40
42141;DHT22;27809;51.864;5.646;2023-11-22T20:19:14;7.30;38.90
42141;DHT22;27809;51.864;5.646;2023-11-22T20:21:40;7.30;39.10
42141;DHT22;27809;51.864;5.646;2023-11-22T20:24:08;7.30;39.30
42141;DHT22;27809;51.864;5.646;2023-11-22T20:26:35;7.30;39.60
42141;DHT22;27809;51.864;5.646;2023-11-22T20:29:00;7.40;40.00
42141;DHT22;27809;51.864;5.646;2023-11-22T20:31:26;7.50;40.20
42141;DHT22;27809;51.864;5.646;2023-11-22T20:33:51;7.50;40.50
42141;DHT22;27809;51.864;5.646;2023-11-22T20:36:17;7.50;40.60
42141;DHT22;27809;51.864;5.646;2023-11-22T20:38:43;7.50;40.70
42141;DHT22;27809;51.864;5.646;2023-11-22T20:41:16;7.50;40.70
42141;DHT22;27809;51.864;5.646;2023-11-22T20:43:43;7.60;40.90
42141;DHT22;27809;51.864;5.646;2023-11-22T20:46:09;7.70;41.20
42141;DHT22;27809;51.864;5.646;2023-11-22T20:48:34;7.60;41.10
42141;DHT22;27809;51.864;5.646;2023-11-22T20:51:00;7.70;41.30
42141;DHT22;27809;51.864;5.646;2023-11-22T20:53:26;7.70;41.40
42141;DHT22;27809;51.864;5.646;2023-11-22T20:55:53;7.70;41.50
42141;DHT22;27809;51.864;5.646;2023-11-22T20:58:20;7.70;41.70
42141;DHT22;27809;51.864;5.646;2023-11-22T21:00:45;7.80;41.80
42141;DHT22;27809;51.864;5.646;2023-11-22T21:03:11;7.80;42.00
42141;DHT22;27809;51.864;5.646;2023-11-22T21:05:37;7.80;42.20
42141;DHT22;27809;51.864;5.646;2023-11-22T21:08:02;7.80;42.30
42141;DHT22;27809;51.864;5.646;2023-11-22T21:10:28;7.90;42.50
42141;DHT22;27809;51.864;5.646;2023-11-22T21:12:54;7.90;42.60
42141;DHT22;27809;51.864;5.646;2023-11-22T21:15:20;7.90;42.60
42141;DHT22;27809;51.864;5.646;2023-11-22T21:17:45;8.00;42.60
42141;DHT22;27809;51.864;5.646;2023-11-22T21:20:12;8.00;42.80
42141;DHT22;27809;51.864;5.646;2023-11-22T21:22:38;8.00;42.80
42141;DHT22;27809;51.864;5.646;2023-11-22T21:25:05;8.00;42.90
42141;DHT22;27809;51.864;5.646;2023-11-22T21:27:34;8.00;43.10
42141;DHT22;27809;51.864;5.646;2023-11-22T21:30:00;8.00;43.30
42141;DHT22;27809;51.864;5.646;2023-11-22T21:32:25;8.10;44.30
42141;DHT22;27809;51.864;5.646;2023-11-22T21:34:51;8.10;43.80
42141;DHT22;27809;51.864;5.646;2023-11-22T21:37:17;8.10;44.10
42141;DHT22;27809;51.864;5.646;2023-11-22T21:39:44;8.10;44.50
42141;DHT22;27809;51.864;5.646;2023-11-22T21:42:09;8.20;45.00
42141;DHT22;27809;51.864;5.646;2023-11-22T21:44:35;8.20;45.30
42141;DHT22;27809;51.864;5.646;2023-11-22T21:47:00;8.20;45.80
42141;DHT22;27809;51.864;5.646;2023-11-22T21:49:26;8.20;46.50
42141;DHT22;27809;51.864;5.646;2023-11-22T21:51:52;8.20;47.70
42141;DHT22;27809;51.864;5.646;2023-11-22T21:54:18;8.20;47.70
42141;DHT22;27809;51.864;5.646;2023-11-22T21:56:45;8.30;48.40
42141;DHT22;27809;51.864;5.646;2023-11-22T21:59:11;8.30;48.60
42141;DHT22;27809;51.864;5.646;2023-11-22T22:01:37;8.30;49.00
42141;DHT22;27809;51.864;5.646;2023-11-22T22:04:04;8.30;49.60
42141;DHT22;27809;51.864;5.646;2023-11-22T22:06:29;8.30;50.10
42141;DHT22;27809;51.864;5.646;2023-11-22T22:08:56;8.30;50.50
42141;DHT22;27809;51.864;5.646;2023-11-22T22:11:21;8.30;51.10
42141;DHT22;27809;51.864;5.646;2023-11-22T22:13:47;8.40;51.80
42141;DHT22;27809;51.864;5.646;2023-11-22T22:16:12;8.40;52.30
42141;DHT22;27809;51.864;5.646;2023-11-22T22:18:38;8.40;53.10
42141;DHT22;27809;51.864;5.646;2023-11-22T22:21:04;8.40;53.70
42141;DHT22;27809;51.864;5.646;2023-11-22T22:23:30;8.40;54.40
42141;DHT22;27809;51.864;5.646;2023-11-22T22:25:58;8.40;55.10
42141;DHT22;27809;51.864;5.646;2023-11-22T22:28:23;8.40;55.80
42141;DHT22;27809;51.864;5.646;2023-11-22T22:30:48;8.40;56.30
42141;DHT22;27809;51.864;5.646;2023-11-22T22:33:14;8.40;57.00
42141;DHT22;27809;51.864;5.646;2023-11-22T22:35:40;8.40;57.70
42141;DHT22;27809;51.864;5.646;2023-11-22T22:38:05;8.40;58.40
42141;DHT22;27809;51.864;5.646;2023-11-22T22:40:31;8.50;59.10
42141;DHT22;27809;51.864;5.646;2023-11-22T22:42:56;8.50;59.90
42141;DHT22;27809;51.864;5.646;2023-11-22T22:45:22;8.50;60.80
42141;DHT22;27809;51.864;5.646;2023-11-22T22:47:48;8.50;61.70
42141;DHT22;27809;51.864;5.646;2023-11-22T22:50:14;8.50;62.50
42141;DHT22;27809;51.864;5.646;2023-11-22T22:52:39;8.50;63.20
42141;DHT22;27809;51.864;5.646;2023-11-22T22:55:05;8.50;64.10
42141;DHT22;27809;51.864;5.646;2023-11-22T22:57:32;8.50;64.80
42141;DHT22;27809;51.864;5.646;2023-11-22T22:59:59;8.50;65.50
42141;DHT22;27809;51.864;5.646;2023-11-22T23:02:24;8.50;66.00
42141;DHT22;27809;51.864;5.646;2023-11-22T23:04:50;8.50;66.70
42141;DHT22;27809;51.864;5.646;2023-11-22T23:07:16;8.50;67.30
42141;DHT22;27809;51.864;5.646;2023-11-22T23:09:42;8.60;67.70
42141;DHT22;27809;51.864;5.646;2023-11-22T23:12:09;8.60;68.10
42141;DHT22;27809;51.864;5.646;2023-11-22T23:14:36;8.60;68.70
42141;DHT22;27809;51.864;5.646;2023-11-22T23:17:02;8.60;69.20
42141;DHT22;27809;51.864;5.646;2023-11-22T23:19:29;8.60;69.80
42141;DHT22;27809;51.864;5.646;2023-11-22T23:21:54;8.60;70.30
42141;DHT22;27809;51.864;5.646;2023-11-22T23:24:20;8.60;70.70
42141;DHT22;27809;51.864;5.646;2023-11-22T23:26:46;8.60;71.20
42141;DHT22;27809;51.864;5.646;2023-11-22T23:29:12;8.60;71.80
42141;DHT22;27809;51.864;5.646;2023-11-22T23:31:37;8.60;72.30
42141;DHT22;27809;51.864;5.646;2023-11-22T23:34:06;8.60;72.70
42141;DHT22;27809;51.864;5.646;2023-11-22T23:36:32;8.70;73.30
42141;DHT22;27809;51.864;5.646;2023-11-22T23:38:58;8.70;73.50
42141;DHT22;27809;51.864;5.646;2023-11-22T23:41:24;8.70;74.10
42141;DHT22;27809;51.864;5.646;2023-11-22T23:43:51;8.70;74.60
42141;DHT22;27809;51.864;5.646;2023-11-22T23:46:17;8.70;75.00
42141;DHT22;27809;51.864;5.646;2023-11-22T23:48:42;8.70;75.70
42141;DHT22;27809;51.864;5.646;2023-11-22T23:51:08;8.70;76.00
42141;DHT22;27809;51.864;5.646;2023-11-22T23:53:34;8.80;76.30
42141;DHT22;27809;51.864;5.646;2023-11-22T23:56:01;8.80;76.80
42141;DHT22;27809;51.864;5.646;2023-11-22T23:58:27;8.80;77.50
